sensor_id;sensor_type;location;lat;lon;timestamp;P1;durP1;ratioP1;P2;durP2;ratioP2
54515;SDS011;40422;45.892;4.738;2023-10-13T03:00:41;7.57;;;4.03;;
54515;SDS011;40422;45.892;4.738;2023-10-13T03:03:07;3.10;;;1.10;;
54515;SDS011;40422;45.892;4.738;2023-10-13T03:05:35;9.50;;;4.38;;
54515;SDS011;40422;45.892;4.738;2023-10-13T03:08:05;10.13;;;4.50;;
54515;SDS011;40422;45.892;4.738;2023-10-13T03:10:31;12.02;;;5.10;;
54515;SDS011;40422;45.892;4.738;2023-10-13T03:12:57;11.63;;;4.95;;
54515;SDS011;40422;45.892;4.738;2023-10-13T03:15:24;13.10;;;5.15;;
54515;SDS011;40422;45.892;4.738;2023-10-13T03:17:56;11.15;;;5.00;;
54515;SDS011;40422;45.892;4.738;2023-10-13T03:20:24;9.20;;;5.03;;
54515;SDS011;40422;45.892;4.738;2023-10-13T03:22:56;8.95;;;3.97;;
54515;SDS011;40422;45.892;4.738;2023-10-13T03:25:22;5.13;;;1.83;;
54515;SDS011;40422;45.892;4.738;2023-10-13T03:27:56;10.32;;;5.78;;
54515;SDS011;40422;45.892;4.738;2023-10-13T03:30:22;8.73;;;4.75;;
54515;SDS011;40422;45.892;4.738;2023-10-13T03:32:55;11.80;;;4.68;;
54515;SDS011;40422;45.892;4.738;2023-10-13T03:35:21;8.57;;;4.50;;
54515;SDS011;40422;45.892;4.738;2023-10-13T03:37:53;8.48;;;4.00;;
54515;SDS011;40422;45.892;4.738;2023-10-13T03:40:19;9.40;;;4.93;;
54515;SDS011;40422;45.892;4.738;2023-10-13T03:42:46;10.80;;;5.25;;
54515;SDS011;40422;45.892;4.738;2023-10-13T03:45:44;8.38;;;4.45;;
54515;SDS011;40422;45.892;4.738;2023-10-13T03:48:19;9.52;;;5.05;;
54515;SDS011;40422;45.892;4.738;2023-10-13T03:50:51;9.60;;;5.00;;
54515;SDS011;40422;45.892;4.738;2023-10-13T03:53:27;9.15;;;5.13;;
54515;SDS011;40422;45.892;4.738;2023-10-13T03:55:58;9.30;;;5.03;;
54515;SDS011;40422;45.892;4.738;2023-10-13T03:58:35;9.52;;;5.05;;
54515;SDS011;40422;45.892;4.738;2023-10-13T04:01:03;10.70;;;5.70;;
54515;SDS011;40422;45.892;4.738;2023-10-13T04:03:30;10.38;;;4.95;;
54515;SDS011;40422;45.892;4.738;2023-10-13T04:06:01;10.85;;;6.05;;
54515;SDS011;40422;45.892;4.738;2023-10-13T04:08:31;10.70;;;5.80;;
54515;SDS011;40422;45.892;4.738;2023-10-13T04:11:13;10.95;;;6.43;;
54515;SDS011;40422;45.892;4.738;2023-10-13T04:13:57;12.93;;;7.00;;
54515;SDS011;40422;45.892;4.738;2023-10-13T04:16:41;12.32;;;6.40;;
54515;SDS011;40422;45.892;4.738;2023-10-13T04:19:18;5.65;;;2.13;;
54515;SDS011;40422;45.892;4.738;2023-10-13T04:21:49;10.57;;;6.43;;
54515;SDS011;40422;45.892;4.738;2023-10-13T04:24:25;10.38;;;6.32;;
54515;SDS011;40422;45.892;4.738;2023-10-13T04:27:01;10.45;;;6.70;;
54515;SDS011;40422;45.892;4.738;2023-10-13T04:30:04;10.88;;;7.07;;
54515;SDS011;40422;45.892;4.738;2023-10-13T04:32:33;11.95;;;7.47;;
54515;SDS011;40422;45.892;4.738;2023-10-13T04:35:03;12.88;;;7.93;;
54515;SDS011;40422;45.892;4.738;2023-10-13T04:37:43;11.55;;;7.32;;
54515;SDS011;40422;45.892;4.738;2023-10-13T04:40:17;12.47;;;7.97;;
54515;SDS011;40422;45.892;4.738;2023-10-13T04:42:50;10.85;;;7.30;;
54515;SDS011;40422;45.892;4.738;2023-10-13T04:45:22;7.82;;;2.50;;
54515;SDS011;40422;45.892;4.738;2023-10-13T04:47:59;13.23;;;8.18;;
54515;SDS011;40422;45.892;4.738;2023-10-13T04:50:43;14.80;;;9.27;;
54515;SDS011;40422;45.892;4.738;2023-10-13T04:53:16;13.63;;;8.70;;
54515;SDS011;40422;45.892;4.738;2023-10-13T04:58:27;13.07;;;8.68;;
54515;SDS011;40422;45.892;4.738;2023-10-13T05:00:59;12.70;;;8.82;;
54515;SDS011;40422;45.892;4.738;2023-10-13T05:03:44;16.52;;;11.38;;
54515;SDS011;40422;45.892;4.738;2023-10-13T05:06:28;14.23;;;10.25;;
54515;SDS011;40422;45.892;4.738;2023-10-13T05:09:08;14.35;;;9.93;;
54515;SDS011;40422;45.892;4.738;2023-10-13T05:11:53;13.48;;;9.52;;
54515;SDS011;40422;45.892;4.738;2023-10-13T05:14:38;12.75;;;9.60;;
54515;SDS011;40422;45.892;4.738;2023-10-13T05:17:22;15.63;;;11.60;;
54515;SDS011;40422;45.892;4.738;2023-10-13T05:20:07;13.27;;;10.32;;
54515;SDS011;40422;45.892;4.738;2023-10-13T05:22:52;15.48;;;10.80;;
54515;SDS011;40422;45.892;4.738;2023-10-13T05:25:36;15.13;;;10.70;;
54515;SDS011;40422;45.892;4.738;2023-10-13T05:28:21;15.45;;;10.10;;
54515;SDS011;40422;45.892;4.738;2023-10-13T05:31:06;14.88;;;10.63;;
54515;SDS011;40422;45.892;4.738;2023-10-13T05:33:50;17.52;;;11.00;;
54515;SDS011;40422;45.892;4.738;2023-10-13T05:36:35;14.35;;;10.32;;
54515;SDS011;40422;45.892;4.738;2023-10-13T05:39:19;15.32;;;11.68;;
54515;SDS011;40422;45.892;4.738;2023-10-13T05:42:03;15.50;;;11.57;;
54515;SDS011;40422;45.892;4.738;2023-10-13T05:44:47;16.27;;;12.35;;
54515;SDS011;40422;45.892;4.738;2023-10-13T05:47:33;17.48;;;10.98;;
54515;SDS011;40422;45.892;4.738;2023-10-13T05:52:45;15.82;;;12.52;;
54515;SDS011;40422;45.892;4.738;2023-10-13T05:55:30;18.48;;;13.68;;
54515;SDS011;40422;45.892;4.738;2023-10-13T05:58:15;18.85;;;13.30;;
54515;SDS011;40422;45.892;4.738;2023-10-13T06:00:59;18.38;;;13.18;;
54515;SDS011;40422;45.892;4.738;2023-10-13T06:03:43;17.65;;;13.80;;
54515;SDS011;40422;45.892;4.738;2023-10-13T06:06:27;15.63;;;11.73;;
54515;SDS011;40422;45.892;4.738;2023-10-13T06:09:11;16.33;;;11.98;;
54515;SDS011;40422;45.892;4.738;2023-10-13T06:11:55;16.25;;;11.60;;
54515;SDS011;40422;45.892;4.738;2023-10-13T06:14:39;18.23;;;12.97;;
54515;SDS011;40422;45.892;4.738;2023-10-13T06:17:23;16.27;;;12.90;;
54515;SDS011;40422;45.892;4.738;2023-10-13T06:20:07;19.08;;;13.50;;
54515;SDS011;40422;45.892;4.738;2023-10-13T06:22:52;15.05;;;11.63;;
54515;SDS011;40422;45.892;4.738;2023-10-13T06:25:37;15.38;;;11.90;;
54515;SDS011;40422;45.892;4.738;2023-10-13T06:28:22;11.48;;;6.95;;
54515;SDS011;40422;45.892;4.738;2023-10-13T06:31:06;12.73;;;7.47;;
54515;SDS011;40422;45.892;4.738;2023-10-13T06:33:32;13.27;;;8.32;;
54515;SDS011;40422;45.892;4.738;2023-10-13T06:36:01;14.95;;;10.63;;
54515;SDS011;40422;45.892;4.738;2023-10-13T06:38:27;18.48;;;10.65;;
54515;SDS011;40422;45.892;4.738;2023-10-13T06:41:01;16.83;;;7.90;;
54515;SDS011;40422;45.892;4.738;2023-10-13T06:43:35;15.88;;;12.18;;
54515;SDS011;40422;45.892;4.738;2023-10-13T06:46:08;15.35;;;9.50;;
54515;SDS011;40422;45.892;4.738;2023-10-13T06:48:39;16.15;;;11.25;;
54515;SDS011;40422;45.892;4.738;2023-10-13T06:51:06;16.60;;;10.75;;
54515;SDS011;40422;45.892;4.738;2023-10-13T06:53:46;16.75;;;11.00;;
54515;SDS011;40422;45.892;4.738;2023-10-13T06:56:15;17.27;;;12.65;;
54515;SDS011;40422;45.892;4.738;2023-10-13T06:58:54;16.17;;;11.63;;
54515;SDS011;40422;45.892;4.738;2023-10-13T07:01:29;16.55;;;11.40;;
54515;SDS011;40422;45.892;4.738;2023-10-13T07:03:57;16.48;;;10.15;;
54515;SDS011;40422;45.892;4.738;2023-10-13T07:06:26;15.57;;;10.60;;
54515;SDS011;40422;45.892;4.738;2023-10-13T07:08:52;15.48;;;10.88;;
54515;SDS011;40422;45.892;4.738;2023-10-13T07:11:19;14.25;;;10.60;;
54515;SDS011;40422;45.892;4.738;2023-10-13T07:14:07;15.57;;;10.75;;
54515;SDS011;40422;45.892;4.738;2023-10-13T07:16:41;16.80;;;9.90;;
54515;SDS011;40422;45.892;4.738;2023-10-13T07:19:12;14.98;;;10.23;;
54515;SDS011;40422;45.892;4.738;2023-10-13T07:21:56;15.30;;;10.20;;
54515;SDS011;40422;45.892;4.738;2023-10-13T07:24:44;13.68;;;8.85;;
54515;SDS011;40422;45.892;4.738;2023-10-13T07:27:16;12.90;;;7.82;;
54515;SDS011;40422;45.892;4.738;2023-10-13T07:29:50;17.08;;;9.63;;
54515;SDS011;40422;45.892;4.738;2023-10-13T07:32:38;14.68;;;9.65;;
54515;SDS011;40422;45.892;4.738;2023-10-13T07:35:10;19.73;;;9.77;;
54515;SDS011;40422;45.892;4.738;2023-10-13T07:37:41;13.18;;;9.18;;
54515;SDS011;40422;45.892;4.738;2023-10-13T07:40:10;13.27;;;9.07;;
54515;SDS011;40422;45.892;4.738;2023-10-13T07:42:51;16.05;;;11.15;;
54515;SDS011;40422;45.892;4.738;2023-10-13T07:45:28;12.15;;;8.57;;
54515;SDS011;40422;45.892;4.738;2023-10-13T07:48:05;12.73;;;8.80;;
54515;SDS011;40422;45.892;4.738;2023-10-13T07:50:44;13.38;;;9.23;;
54515;SDS011;40422;45.892;4.738;2023-10-13T07:53:10;13.45;;;8.23;;
54515;SDS011;40422;45.892;4.738;2023-10-13T07:55:51;12.07;;;8.48;;
54515;SDS011;40422;45.892;4.738;2023-10-13T07:58:23;18.15;;;9.00;;
54515;SDS011;40422;45.892;4.738;2023-10-13T08:00:52;19.05;;;8.07;;
54515;SDS011;40422;45.892;4.738;2023-10-13T08:03:24;15.52;;;8.45;;
54515;SDS011;40422;45.892;4.738;2023-10-13T08:06:00;11.68;;;7.57;;
54515;SDS011;40422;45.892;4.738;2023-10-13T08:08:43;11.23;;;7.95;;
54515;SDS011;40422;45.892;4.738;2023-10-13T08:11:15;10.70;;;6.68;;
54515;SDS011;40422;45.892;4.738;2023-10-13T08:13:51;11.23;;;6.70;;
54515;SDS011;40422;45.892;4.738;2023-10-13T08:16:24;12.13;;;8.13;;
54515;SDS011;40422;45.892;4.738;2023-10-13T08:19:10;11.07;;;7.10;;
54515;SDS011;40422;45.892;4.738;2023-10-13T08:21:40;13.15;;;6.78;;
54515;SDS011;40422;45.892;4.738;2023-10-13T08:24:17;12.23;;;6.55;;
54515;SDS011;40422;45.892;4.738;2023-10-13T08:27:01;10.20;;;7.05;;
54515;SDS011;40422;45.892;4.738;2023-10-13T08:29:45;10.38;;;6.95;;
54515;SDS011;40422;45.892;4.738;2023-10-13T08:34:47;12.27;;;7.22;;
54515;SDS011;40422;45.892;4.738;2023-10-13T08:37:13;16.20;;;7.22;;
54515;SDS011;40422;45.892;4.738;2023-10-13T08:39:52;11.38;;;6.28;;
54515;SDS011;40422;45.892;4.738;2023-10-13T08:42:28;10.35;;;6.25;;
54515;SDS011;40422;45.892;4.738;2023-10-13T08:45:10;9.07;;;6.15;;
54515;SDS011;40422;45.892;4.738;2023-10-13T08:47:52;11.40;;;7.10;;
54515;SDS011;40422;45.892;4.738;2023-10-13T08:50:32;12.55;;;6.40;;
54515;SDS011;40422;45.892;4.738;2023-10-13T08:55:58;12.05;;;6.03;;
54515;SDS011;40422;45.892;4.738;2023-10-13T08:58:43;11.38;;;6.18;;
54515;SDS011;40422;45.892;4.738;2023-10-13T09:01:26;13.70;;;6.55;;
54515;SDS011;40422;45.892;4.738;2023-10-13T09:04:06;11.52;;;5.95;;
54515;SDS011;40422;45.892;4.738;2023-10-13T09:09:15;10.52;;;5.93;;
54515;SDS011;40422;45.892;4.738;2023-10-13T09:11:55;10.02;;;5.82;;
54515;SDS011;40422;45.892;4.738;2023-10-13T09:14:35;11.48;;;6.25;;
54515;SDS011;40422;45.892;4.738;2023-10-13T09:17:07;10.35;;;4.93;;
54515;SDS011;40422;45.892;4.738;2023-10-13T09:19:50;9.73;;;5.75;;
54515;SDS011;40422;45.892;4.738;2023-10-13T09:22:28;9.40;;;4.90;;
54515;SDS011;40422;45.892;4.738;2023-10-13T09:25:01;8.73;;;4.90;;
54515;SDS011;40422;45.892;4.738;2023-10-13T09:27:30;10.13;;;5.18;;
54515;SDS011;40422;45.892;4.738;2023-10-13T09:30:01;11.25;;;5.15;;
54515;SDS011;40422;45.892;4.738;2023-10-13T09:32:46;11.25;;;5.53;;
54515;SDS011;40422;45.892;4.738;2023-10-13T09:35:19;9.75;;;5.00;;
54515;SDS011;40422;45.892;4.738;2023-10-13T09:37:48;11.55;;;5.57;;
54515;SDS011;40422;45.892;4.738;2023-10-13T09:40:17;12.52;;;4.90;;
54515;SDS011;40422;45.892;4.738;2023-10-13T09:42:53;14.32;;;5.07;;
54515;SDS011;40422;45.892;4.738;2023-10-13T09:45:29;14.85;;;5.05;;
54515;SDS011;40422;45.892;4.738;2023-10-13T09:48:01;10.60;;;5.13;;
54515;SDS011;40422;45.892;4.738;2023-10-13T09:50:41;12.45;;;4.47;;
54515;SDS011;40422;45.892;4.738;2023-10-13T09:53:10;8.88;;;4.80;;
54515;SDS011;40422;45.892;4.738;2023-10-13T09:55:40;16.20;;;4.80;;
54515;SDS011;40422;45.892;4.738;2023-10-13T09:58:11;14.35;;;5.47;;
54515;SDS011;40422;45.892;4.738;2023-10-13T10:00:45;14.32;;;5.50;;
54515;SDS011;40422;45.892;4.738;2023-10-13T10:03:43;9.80;;;4.85;;
54515;SDS011;40422;45.892;4.738;2023-10-13T10:06:20;8.90;;;4.55;;
54515;SDS011;40422;45.892;4.738;2023-10-13T10:08:53;11.63;;;4.78;;
54515;SDS011;40422;45.892;4.738;2023-10-13T10:11:48;11.68;;;4.55;;
54515;SDS011;40422;45.892;4.738;2023-10-13T10:14:28;11.90;;;5.00;;
54515;SDS011;40422;45.892;4.738;2023-10-13T10:17:09;16.77;;;4.55;;
54515;SDS011;40422;45.892;4.738;2023-10-13T10:19:46;19.20;;;5.07;;
54515;SDS011;40422;45.892;4.738;2023-10-13T10:22:11;13.68;;;4.30;;
54515;SDS011;40422;45.892;4.738;2023-10-13T10:24:55;18.92;;;4.88;;
54515;SDS011;40422;45.892;4.738;2023-10-13T10:27:25;16.38;;;4.10;;
54515;SDS011;40422;45.892;4.738;2023-10-13T10:29:54;14.95;;;4.00;;
54515;SDS011;40422;45.892;4.738;2023-10-13T10:32:20;11.02;;;4.00;;
54515;SDS011;40422;45.892;4.738;2023-10-13T10:34:46;13.25;;;4.03;;
54515;SDS011;40422;45.892;4.738;2023-10-13T10:37:12;11.38;;;3.58;;
54515;SDS011;40422;45.892;4.738;2023-10-13T10:39:38;23.48;;;4.97;;
54515;SDS011;40422;45.892;4.738;2023-10-13T10:42:11;11.48;;;4.43;;
54515;SDS011;40422;45.892;4.738;2023-10-13T10:44:42;12.13;;;4.05;;
54515;SDS011;40422;45.892;4.738;2023-10-13T10:47:11;13.13;;;4.40;;
54515;SDS011;40422;45.892;4.738;2023-10-13T10:49:45;14.40;;;4.55;;
54515;SDS011;40422;45.892;4.738;2023-10-13T10:52:12;11.23;;;4.20;;
54515;SDS011;40422;45.892;4.738;2023-10-13T10:54:44;10.93;;;4.13;;
54515;SDS011;40422;45.892;4.738;2023-10-13T10:57:16;8.57;;;3.97;;
54515;SDS011;40422;45.892;4.738;2023-10-13T10:59:45;10.80;;;4.57;;
54515;SDS011;40422;45.892;4.738;2023-10-13T11:02:11;10.18;;;4.28;;
54515;SDS011;40422;45.892;4.738;2023-10-13T11:04:43;9.35;;;4.30;;
54515;SDS011;40422;45.892;4.738;2023-10-13T11:07:22;13.93;;;4.93;;
54515;SDS011;40422;45.892;4.738;2023-10-13T11:10:10;14.38;;;4.95;;
54515;SDS011;40422;45.892;4.738;2023-10-13T11:12:55;14.25;;;7.60;;
54515;SDS011;40422;45.892;4.738;2023-10-13T11:15:48;17.85;;;5.03;;
54515;SDS011;40422;45.892;4.738;2023-10-13T11:18:15;12.48;;;4.25;;
54515;SDS011;40422;45.892;4.738;2023-10-13T11:20:59;17.17;;;4.72;;
54515;SDS011;40422;45.892;4.738;2023-10-13T11:23:24;7.50;;;4.20;;
54515;SDS011;40422;45.892;4.738;2023-10-13T11:25:59;10.32;;;4.25;;
54515;SDS011;40422;45.892;4.738;2023-10-13T11:28:25;12.15;;;4.47;;
54515;SDS011;40422;45.892;4.738;2023-10-13T11:30:57;9.82;;;4.25;;
54515;SDS011;40422;45.892;4.738;2023-10-13T11:33:44;13.70;;;4.85;;
54515;SDS011;40422;45.892;4.738;2023-10-13T11:36:12;14.27;;;4.30;;
54515;SDS011;40422;45.892;4.738;2023-10-13T11:38:42;9.90;;;3.97;;
54515;SDS011;40422;45.892;4.738;2023-10-13T11:41:14;7.97;;;4.10;;
54515;SDS011;40422;45.892;4.738;2023-10-13T11:43:42;14.35;;;4.93;;
54515;SDS011;40422;45.892;4.738;2023-10-13T11:46:10;14.10;;;4.57;;
54515;SDS011;40422;45.892;4.738;2023-10-13T11:48:40;13.35;;;4.60;;
54515;SDS011;40422;45.892;4.738;2023-10-13T11:51:08;10.38;;;4.50;;
54515;SDS011;40422;45.892;4.738;2023-10-13T11:53:49;14.80;;;5.25;;
54515;SDS011;40422;45.892;4.738;2023-10-13T11:56:21;9.68;;;4.50;;
54515;SDS011;40422;45.892;4.738;2023-10-13T11:58:47;12.57;;;5.22;;
54515;SDS011;40422;45.892;4.738;2023-10-13T12:01:13;11.88;;;5.13;;
54515;SDS011;40422;45.892;4.738;2023-10-13T12:03:40;13.15;;;5.32;;
54515;SDS011;40422;45.892;4.738;2023-10-13T12:06:24;10.85;;;4.55;;
54515;SDS011;40422;45.892;4.738;2023-10-13T12:09:07;10.00;;;4.53;;
54515;SDS011;40422;45.892;4.738;2023-10-13T12:11:42;11.15;;;4.60;;
54515;SDS011;40422;45.892;4.738;2023-10-13T12:14:10;9.70;;;4.93;;
54515;SDS011;40422;45.892;4.738;2023-10-13T12:16:54;11.50;;;4.80;;
54515;SDS011;40422;45.892;4.738;2023-10-13T12:19:21;11.20;;;4.72;;
54515;SDS011;40422;45.892;4.738;2023-10-13T12:21:52;8.40;;;4.35;;
54515;SDS011;40422;45.892;4.738;2023-10-13T12:24:21;9.77;;;4.28;;
54515;SDS011;40422;45.892;4.738;2023-10-13T12:26:56;8.50;;;4.47;;
54515;SDS011;40422;45.892;4.738;2023-10-13T12:29:23;10.77;;;5.00;;
54515;SDS011;40422;45.892;4.738;2023-10-13T12:31:53;8.73;;;5.15;;
54515;SDS011;40422;45.892;4.738;2023-10-13T12:34:36;8.77;;;4.83;;
54515;SDS011;40422;45.892;4.738;2023-10-13T12:37:23;10.40;;;4.65;;
54515;SDS011;40422;45.892;4.738;2023-10-13T12:40:04;10.38;;;4.68;;
54515;SDS011;40422;45.892;4.738;2023-10-13T12:43:05;13.65;;;4.72;;
54515;SDS011;40422;45.892;4.738;2023-10-13T12:45:50;11.52;;;4.90;;
54515;SDS011;40422;45.892;4.738;2023-10-13T12:48:35;12.27;;;5.43;;
54515;SDS011;40422;45.892;4.738;2023-10-13T12:51:20;13.88;;;4.60;;
54515;SDS011;40422;45.892;4.738;2023-10-13T12:53:56;10.15;;;4.22;;
54515;SDS011;40422;45.892;4.738;2023-10-13T12:58:56;11.07;;;4.38;;
54515;SDS011;40422;45.892;4.738;2023-10-13T13:01:22;11.25;;;4.90;;
54515;SDS011;40422;45.892;4.738;2023-10-13T13:03:57;12.70;;;4.80;;
54515;SDS011;40422;45.892;4.738;2023-10-13T13:06:24;12.43;;;4.90;;
54515;SDS011;40422;45.892;4.738;2023-10-13T13:08:53;13.20;;;5.72;;
54515;SDS011;40422;45.892;4.738;2023-10-13T13:11:20;12.02;;;4.75;;
54515;SDS011;40422;45.892;4.738;2023-10-13T13:13:46;9.07;;;4.18;;
54515;SDS011;40422;45.892;4.738;2023-10-13T13:16:12;9.27;;;4.20;;
54515;SDS011;40422;45.892;4.738;2023-10-13T13:18:38;16.33;;;4.53;;
54515;SDS011;40422;45.892;4.738;2023-10-13T13:21:04;15.30;;;4.65;;
54515;SDS011;40422;45.892;4.738;2023-10-13T13:23:37;15.18;;;4.65;;
54515;SDS011;40422;45.892;4.738;2023-10-13T13:26:04;12.15;;;4.43;;
54515;SDS011;40422;45.892;4.738;2023-10-13T13:28:40;10.95;;;4.65;;
54515;SDS011;40422;45.892;4.738;2023-10-13T13:31:07;8.10;;;4.72;;
54515;SDS011;40422;45.892;4.738;2023-10-13T13:33:33;9.77;;;4.50;;
54515;SDS011;40422;45.892;4.738;2023-10-13T13:36:06;9.25;;;4.40;;
54515;SDS011;40422;45.892;4.738;2023-10-13T13:38:37;14.73;;;5.35;;
54515;SDS011;40422;45.892;4.738;2023-10-13T13:41:05;23.60;;;5.85;;
54515;SDS011;40422;45.892;4.738;2023-10-13T13:43:51;13.60;;;4.78;;
54515;SDS011;40422;45.892;4.738;2023-10-13T13:46:22;12.65;;;4.78;;
54515;SDS011;40422;45.892;4.738;2023-10-13T13:48:58;15.65;;;5.22;;
54515;SDS011;40422;45.892;4.738;2023-10-13T13:51:25;14.02;;;5.05;;
54515;SDS011;40422;45.892;4.738;2023-10-13T13:53:53;10.40;;;4.85;;
54515;SDS011;40422;45.892;4.738;2023-10-13T13:56:21;12.93;;;4.63;;
54515;SDS011;40422;45.892;4.738;2023-10-13T13:58:50;10.35;;;4.78;;
54515;SDS011;40422;45.892;4.738;2023-10-13T14:01:17;9.57;;;4.43;;
54515;SDS011;40422;45.892;4.738;2023-10-13T14:03:45;11.25;;;4.63;;
54515;SDS011;40422;45.892;4.738;2023-10-13T14:06:15;8.65;;;3.90;;
54515;SDS011;40422;45.892;4.738;2023-10-13T14:08:48;9.88;;;4.63;;
54515;SDS011;40422;45.892;4.738;2023-10-13T14:11:16;9.57;;;4.70;;
54515;SDS011;40422;45.892;4.738;2023-10-13T14:13:48;12.45;;;4.88;;
54515;SDS011;40422;45.892;4.738;2023-10-13T14:16:16;14.52;;;4.72;;
54515;SDS011;40422;45.892;4.738;2023-10-13T14:18:45;11.48;;;4.20;;
54515;SDS011;40422;45.892;4.738;2023-10-13T14:21:12;11.48;;;4.60;;
54515;SDS011;40422;45.892;4.738;2023-10-13T14:23:44;11.02;;;4.63;;
54515;SDS011;40422;45.892;4.738;2023-10-13T14:26:14;12.30;;;4.50;;
54515;SDS011;40422;45.892;4.738;2023-10-13T14:28:45;12.65;;;5.20;;
54515;SDS011;40422;45.892;4.738;2023-10-13T14:31:29;8.52;;;4.53;;
54515;SDS011;40422;45.892;4.738;2023-10-13T14:33:55;9.38;;;4.15;;
54515;SDS011;40422;45.892;4.738;2023-10-13T14:36:23;8.50;;;4.43;;
54515;SDS011;40422;45.892;4.738;2023-10-13T14:38:53;9.38;;;4.70;;
54515;SDS011;40422;45.892;4.738;2023-10-13T14:41:19;11.70;;;4.82;;
54515;SDS011;40422;45.892;4.738;2023-10-13T14:43:45;7.65;;;3.80;;
54515;SDS011;40422;45.892;4.738;2023-10-13T14:46:16;9.57;;;4.30;;
54515;SDS011;40422;45.892;4.738;2023-10-13T14:48:48;7.18;;;4.13;;
54515;SDS011;40422;45.892;4.738;2023-10-13T14:51:16;9.05;;;3.97;;
54515;SDS011;40422;45.892;4.738;2023-10-13T14:53:42;10.70;;;4.20;;
54515;SDS011;40422;45.892;4.738;2023-10-13T14:56:11;9.82;;;4.88;;
54515;SDS011;40422;45.892;4.738;2023-10-13T14:58:38;8.80;;;4.10;;
54515;SDS011;40422;45.892;4.738;2023-10-13T15:01:16;16.17;;;4.28;;
54515;SDS011;40422;45.892;4.738;2023-10-13T15:03:47;7.78;;;4.60;;
54515;SDS011;40422;45.892;4.738;2023-10-13T15:06:18;9.05;;;4.93;;
54515;SDS011;40422;45.892;4.738;2023-10-13T15:08:46;11.90;;;4.68;;
54515;SDS011;40422;45.892;4.738;2023-10-13T15:11:13;10.00;;;4.53;;
54515;SDS011;40422;45.892;4.738;2023-10-13T15:13:42;10.23;;;4.47;;
54515;SDS011;40422;45.892;4.738;2023-10-13T15:16:18;8.35;;;4.82;;
54515;SDS011;40422;45.892;4.738;2023-10-13T15:18:46;7.22;;;4.30;;
54515;SDS011;40422;45.892;4.738;2023-10-13T15:21:19;10.02;;;4.85;;
54515;SDS011;40422;45.892;4.738;2023-10-13T15:23:46;15.07;;;4.90;;
54515;SDS011;40422;45.892;4.738;2023-10-13T15:26:13;9.32;;;4.63;;
54515;SDS011;40422;45.892;4.738;2023-10-13T15:28:40;9.55;;;5.20;;
54515;SDS011;40422;45.892;4.738;2023-10-13T15:31:18;9.05;;;4.70;;
54515;SDS011;40422;45.892;4.738;2023-10-13T15:33:50;8.23;;;4.55;;
54515;SDS011;40422;45.892;4.738;2023-10-13T15:36:20;9.88;;;4.63;;
54515;SDS011;40422;45.892;4.738;2023-10-13T15:38:48;11.63;;;5.03;;
54515;SDS011;40422;45.892;4.738;2023-10-13T15:41:26;10.05;;;5.32;;
54515;SDS011;40422;45.892;4.738;2023-10-13T15:43:52;8.50;;;4.68;;
54515;SDS011;40422;45.892;4.738;2023-10-13T15:46:19;11.15;;;5.40;;
54515;SDS011;40422;45.892;4.738;2023-10-13T15:48:48;11.32;;;4.70;;
54515;SDS011;40422;45.892;4.738;2023-10-13T15:51:15;10.60;;;4.88;;
54515;SDS011;40422;45.892;4.738;2023-10-13T15:53:41;12.95;;;5.60;;
54515;SDS011;40422;45.892;4.738;2023-10-13T15:56:12;8.63;;;5.25;;
54515;SDS011;40422;45.892;4.738;2023-10-13T15:58:43;9.52;;;5.75;;
54515;SDS011;40422;45.892;4.738;2023-10-13T16:01:12;9.57;;;5.47;;
54515;SDS011;40422;45.892;4.738;2023-10-13T16:03:41;13.32;;;5.10;;
54515;SDS011;40422;45.892;4.738;2023-10-13T16:06:09;11.32;;;4.95;;
54515;SDS011;40422;45.892;4.738;2023-10-13T16:08:38;9.73;;;5.15;;
54515;SDS011;40422;45.892;4.738;2023-10-13T16:11:08;8.93;;;4.90;;
54515;SDS011;40422;45.892;4.738;2023-10-13T16:13:44;9.45;;;5.13;;
54515;SDS011;40422;45.892;4.738;2023-10-13T16:16:21;8.73;;;5.25;;
54515;SDS011;40422;45.892;4.738;2023-10-13T16:18:50;10.52;;;4.97;;
54515;SDS011;40422;45.892;4.738;2023-10-13T16:21:17;10.05;;;5.25;;
54515;SDS011;40422;45.892;4.738;2023-10-13T16:23:44;8.82;;;4.95;;
54515;SDS011;40422;45.892;4.738;2023-10-13T16:26:13;10.07;;;4.72;;
54515;SDS011;40422;45.892;4.738;2023-10-13T16:28:41;9.50;;;5.35;;
54515;SDS011;40422;45.892;4.738;2023-10-13T16:31:07;9.25;;;5.25;;
54515;SDS011;40422;45.892;4.738;2023-10-13T16:33:36;12.80;;;5.03;;
54515;SDS011;40422;45.892;4.738;2023-10-13T16:36:04;10.35;;;5.15;;
54515;SDS011;40422;45.892;4.738;2023-10-13T16:38:33;8.13;;;5.18;;
54515;SDS011;40422;45.892;4.738;2023-10-13T16:41:00;9.65;;;5.65;;
54515;SDS011;40422;45.892;4.738;2023-10-13T16:43:30;9.68;;;5.15;;
54515;SDS011;40422;45.892;4.738;2023-10-13T16:45:58;9.75;;;5.45;;
54515;SDS011;40422;45.892;4.738;2023-10-13T16:48:24;12.68;;;5.28;;
54515;SDS011;40422;45.892;4.738;2023-10-13T16:50:51;10.90;;;4.95;;
54515;SDS011;40422;45.892;4.738;2023-10-13T16:53:21;12.48;;;5.70;;
54515;SDS011;40422;45.892;4.738;2023-10-13T16:55:47;10.05;;;5.47;;
54515;SDS011;40422;45.892;4.738;2023-10-13T16:58:13;9.35;;;5.43;;
54515;SDS011;40422;45.892;4.738;2023-10-13T17:00:39;10.38;;;5.78;;
54515;SDS011;40422;45.892;4.738;2023-10-13T17:03:08;8.73;;;5.30;;
54515;SDS011;40422;45.892;4.738;2023-10-13T17:05:43;10.20;;;4.97;;
54515;SDS011;40422;45.892;4.738;2023-10-13T17:08:10;8.75;;;5.18;;
54515;SDS011;40422;45.892;4.738;2023-10-13T17:10:38;9.43;;;5.70;;
54515;SDS011;40422;45.892;4.738;2023-10-13T17:13:04;10.63;;;5.20;;
54515;SDS011;40422;45.892;4.738;2023-10-13T17:15:32;10.25;;;5.55;;
54515;SDS011;40422;45.892;4.738;2023-10-13T17:17:59;10.35;;;5.97;;
54515;SDS011;40422;45.892;4.738;2023-10-13T17:20:25;9.35;;;5.50;;
54515;SDS011;40422;45.892;4.738;2023-10-13T17:22:51;9.98;;;5.43;;
54515;SDS011;40422;45.892;4.738;2023-10-13T17:25:21;9.77;;;5.80;;
54515;SDS011;40422;45.892;4.738;2023-10-13T17:27:47;9.23;;;5.22;;
54515;SDS011;40422;45.892;4.738;2023-10-13T17:30:12;10.05;;;5.18;;
54515;SDS011;40422;45.892;4.738;2023-10-13T17:32:39;9.68;;;5.45;;
54515;SDS011;40422;45.892;4.738;2023-10-13T17:35:04;8.60;;;4.78;;
54515;SDS011;40422;45.892;4.738;2023-10-13T17:37:36;7.60;;;4.80;;
54515;SDS011;40422;45.892;4.738;2023-10-13T17:40:07;9.50;;;5.15;;
54515;SDS011;40422;45.892;4.738;2023-10-13T17:42:40;9.93;;;5.07;;
54515;SDS011;40422;45.892;4.738;2023-10-13T17:45:12;9.48;;;5.00;;
54515;SDS011;40422;45.892;4.738;2023-10-13T17:47:38;9.65;;;5.20;;
54515;SDS011;40422;45.892;4.738;2023-10-13T17:50:05;10.27;;;5.30;;
54515;SDS011;40422;45.892;4.738;2023-10-13T17:52:33;9.95;;;4.75;;
54515;SDS011;40422;45.892;4.738;2023-10-13T17:55:02;8.55;;;5.22;;
54515;SDS011;40422;45.892;4.738;2023-10-13T17:57:33;8.60;;;5.40;;
54515;SDS011;40422;45.892;4.738;2023-10-13T17:59:59;9.65;;;5.43;;
54515;SDS011;40422;45.892;4.738;2023-10-13T18:02:27;8.73;;;4.85;;
54515;SDS011;40422;45.892;4.738;2023-10-13T18:04:55;10.02;;;5.38;;
54515;SDS011;40422;45.892;4.738;2023-10-13T18:07:21;9.43;;;5.57;;
54515;SDS011;40422;45.892;4.738;2023-10-13T18:09:50;8.77;;;5.55;;
54515;SDS011;40422;45.892;4.738;2023-10-13T18:12:17;9.73;;;5.60;;
54515;SDS011;40422;45.892;4.738;2023-10-13T18:14:42;10.43;;;6.00;;
54515;SDS011;40422;45.892;4.738;2023-10-13T18:17:08;9.50;;;5.60;;
54515;SDS011;40422;45.892;4.738;2023-10-13T18:19:34;10.63;;;5.78;;
54515;SDS011;40422;45.892;4.738;2023-10-13T18:22:01;10.02;;;5.30;;
54515;SDS011;40422;45.892;4.738;2023-10-13T18:24:28;10.18;;;5.50;;
54515;SDS011;40422;45.892;4.738;2023-10-13T18:26:55;8.77;;;4.82;;